Rushmore — WDH6272 — position and weather

sailwx.info

Track history (hours):
 
Tides and Currents Weather Stations Pressure Air Temp Water Temp Dewpoint Dewpoint Depression Visibility Wind Speed Wind Dir Waves Ship Positions

Rushmore

Owner: Fulton, David L, Bellevue, WA. More information available from US FCC via Universal Licensing System and Coast Guard Vessel Documentation Center.

Last reported at 2017-Nov-04 22:28 UTC. Time now 2017-Dec-16 22:42 UTC.
Position N 48°27' W 122°31'.
Warning: this ship's position is 42 days out of date.

Length 32 m; draft 1.9 m.

Type: Pleasure craft. MMSI: 367636270.

Date/timePositionNaut miles runAvg speedWind from/ knotsBaromVisibWave heightAir tempDewpointWater temp
2017-Nov-04 22:28N 48°27' W 122°31'0 0.0
2017-Nov-04 22:00N 48°27' W 122°31'0 0.0
2017-Nov-04 21:30N 48°27' W 122°31'1 2.6
2017-Nov-04 21:00N 48°26' W 122°30'4 7.3
2017-Nov-04 20:30N 48°23' W 122°31'3 6.1
2017-Nov-04 20:00N 48°19' W 122°31'510.8
2017-Nov-04 19:30N 48°14' W 122°33'612.0
2017-Nov-04 19:00N 48°08' W 122°31'611.9
2017-Nov-04 18:30N 48°04' W 122°25'611.5
2017-Nov-04 18:00N 47°59' W 122°21'611.2
2017-Nov-04 17:30N 47°54' W 122°22'612.3
2017-Nov-04 17:00N 47°48' W 122°25'611.2
2017-Nov-04 16:31N 47°42' W 122°26'611.4
2017-Nov-04 16:00N 47°37' W 122°27'611.9
2017-Nov-04 15:31N 47°31' W 122°25'611.7
2017-Nov-04 15:01N 47°25' W 122°22'5 9.8
2017-Nov-04 14:31N 47°20' W 122°25'3 6.6
2017-Nov-04 14:01N 47°17' W 122°25'3 5.2
2017-Nov-04 13:31N 47°16' W 122°22'0 0.0
2017-Nov-04 13:01N 47°16' W 122°22'0 0.0
2017-Nov-04 12:31N 47°16' W 122°22'0 0.0
2017-Nov-04 12:01N 47°16' W 122°22'0 0.0
2017-Nov-04 11:31N 47°16' W 122°22'0 0.0
2017-Nov-04 11:01N 47°16' W 122°22'0 0.0
2017-Nov-04 10:31N 47°16' W 122°22'0 0.0
2017-Nov-04 10:00N 47°16' W 122°22'0 0.0
2017-Nov-04 09:31N 47°16' W 122°22'0 0.0
2017-Nov-04 09:00N 47°16' W 122°22'0 0.0
2017-Nov-04 08:30N 47°16' W 122°22'0 0.0
2017-Nov-04 08:00N 47°16' W 122°22'0 0.0
2017-Nov-04 07:30N 47°16' W 122°22'0 0.0
2017-Nov-04 07:00N 47°16' W 122°22'0 0.0
2017-Nov-04 06:30N 47°16' W 122°22'0 0.0
2017-Nov-04 06:00N 47°16' W 122°22'0 0.0
2017-Nov-04 05:30N 47°16' W 122°22'0 0.0
2017-Nov-04 05:00N 47°16' W 122°22'0 0.0
2017-Nov-04 04:30N 47°16' W 122°22'0 0.0
2017-Nov-04 04:00N 47°16' W 122°22'0 0.0
2017-Nov-04 03:30N 47°16' W 122°22'0 0.0
2017-Nov-04 03:00N 47°16' W 122°22'0 0.0
2017-Nov-04 02:30N 47°16' W 122°22'0 0.0
2017-Nov-04 02:00N 47°16' W 122°22'0 0.0
2017-Nov-04 01:30N 47°16' W 122°22'0 0.0
2017-Nov-04 01:00N 47°16' W 122°22'0 0.0
2017-Nov-04 00:30N 47°16' W 122°22'0 0.0
2017-Nov-04 00:00N 47°16' W 122°22'0 0.0
2017-Nov-03 23:30N 47°16' W 122°22'0 0.0
2017-Nov-03 23:00N 47°16' W 122°22'0 0.0
2017-Nov-03 22:30N 47°16' W 122°22'0 0.0
2017-Nov-03 22:00N 47°16' W 122°22'0 0.0
2017-Nov-03 21:30N 47°16' W 122°22'0 0.0
2017-Nov-03 21:00N 47°16' W 122°22'0 0.0
2017-Nov-03 20:30N 47°16' W 122°22'0 0.0
2017-Nov-03 20:00N 47°16' W 122°22'0 0.0
2017-Nov-03 19:30N 47°16' W 122°22'0 0.0
2017-Nov-03 19:00N 47°16' W 122°22'0 0.0
2017-Nov-03 18:30N 47°16' W 122°22'0 0.0
2017-Nov-03 18:00N 47°16' W 122°22'0 0.0
2017-Nov-03 17:30N 47°16' W 122°22'0 0.0
2017-Nov-03 17:00N 47°16' W 122°22'0 0.0
2017-Nov-03 16:30N 47°16' W 122°22'0 0.0
2017-Nov-03 16:00N 47°16' W 122°22'0 0.0
2017-Nov-03 15:30N 47°16' W 122°22'0 0.0
2017-Nov-03 15:00N 47°16' W 122°22'0 0.0
2017-Nov-03 14:30N 47°16' W 122°22'0 0.0
2017-Nov-03 14:00N 47°16' W 122°22'0 0.0
2017-Nov-03 13:30N 47°16' W 122°22'0 0.0
2017-Nov-03 13:00N 47°16' W 122°22'0 0.0
2017-Nov-03 12:30N 47°16' W 122°22'0 0.0
2017-Nov-03 12:00N 47°16' W 122°22'0 0.0
2017-Nov-03 11:30N 47°16' W 122°22'0 0.0
2017-Nov-03 11:00N 47°16' W 122°22'0 0.0
2017-Nov-03 10:30N 47°16' W 122°22'0 0.0
2017-Nov-03 10:00N 47°16' W 122°22'0 0.0
2017-Nov-03 09:31N 47°16' W 122°22'0 0.0
2017-Nov-03 09:00N 47°16' W 122°22'0 0.0
2017-Nov-03 08:30N 47°16' W 122°22'0 0.0
2017-Nov-03 08:00N 47°16' W 122°22'0 0.0
2017-Nov-03 07:30N 47°16' W 122°22'0 0.0
2017-Nov-03 07:00N 47°16' W 122°22'0 0.0
2017-Nov-03 06:31N 47°16' W 122°22'0 0.0
2017-Nov-03 06:00N 47°16' W 122°22'0 0.0
2017-Nov-03 05:30N 47°16' W 122°22'0 0.0
2017-Nov-03 05:00N 47°16' W 122°22'0 0.0
2017-Nov-03 04:30N 47°16' W 122°22'0 0.0
2017-Nov-03 04:00N 47°16' W 122°22'0 0.0
2017-Nov-03 03:30N 47°16' W 122°22'0 0.0
2017-Nov-03 03:00N 47°16' W 122°22'0 0.0
2017-Nov-03 02:30N 47°16' W 122°22'0 0.0
2017-Nov-03 02:00N 47°16' W 122°22'0 0.0
2017-Nov-03 01:30N 47°16' W 122°22'0 0.0
2017-Nov-03 01:00N 47°16' W 122°22'0 0.0
2017-Nov-03 00:30N 47°16' W 122°22'0 0.0
2017-Nov-03 00:00N 47°16' W 122°22'0 0.0
2017-Nov-02 23:30N 47°16' W 122°22'0 0.0
2017-Nov-02 23:00N 47°16' W 122°22'0 0.0
2017-Nov-02 22:30N 47°16' W 122°22'0 0.0
2017-Nov-02 22:00N 47°16' W 122°22'0 0.0
2017-Nov-02 21:30N 47°16' W 122°22'0 0.0
2017-Nov-02 21:00N 47°16' W 122°22'0 0.0
2017-Nov-02 20:30N 47°16' W 122°22'0 0.0
2017-Nov-02 20:00N 47°16' W 122°22'0 0.0
2017-Nov-02 19:30N 47°16' W 122°22'0 0.0
2017-Nov-02 19:00N 47°16' W 122°22'  
Track history (hours):
 
Tides and Currents Weather Stations Pressure Air Temp Water Temp Dewpoint Dewpoint Depression Visibility Wind Speed Wind Dir Waves Ship Positions

Rushmore

Owner: Fulton, David L, Bellevue, WA. More information available from US FCC via Universal Licensing System and Coast Guard Vessel Documentation Center.

Last reported at 2017-Nov-04 22:28 UTC. Time now 2017-Dec-16 22:42 UTC.
Position N 48°27' W 122°31'.
Warning: this ship's position is 42 days out of date.

Length 32 m; draft 1.9 m.

Type: Pleasure craft. MMSI: 367636270.

Date/timePositionNaut miles runAvg speedWind from/ knotsBaromVisibWave heightAir tempDewpointWater temp
2017-Nov-04 22:28N 48°27' W 122°31'0 0.0
2017-Nov-04 22:00N 48°27' W 122°31'0 0.0
2017-Nov-04 21:30N 48°27' W 122°31'1 2.6
2017-Nov-04 21:00N 48°26' W 122°30'4 7.3
2017-Nov-04 20:30N 48°23' W 122°31'3 6.1
2017-Nov-04 20:00N 48°19' W 122°31'510.8
2017-Nov-04 19:30N 48°14' W 122°33'612.0
2017-Nov-04 19:00N 48°08' W 122°31'611.9
2017-Nov-04 18:30N 48°04' W 122°25'611.5
2017-Nov-04 18:00N 47°59' W 122°21'611.2
2017-Nov-04 17:30N 47°54' W 122°22'612.3
2017-Nov-04 17:00N 47°48' W 122°25'611.2
2017-Nov-04 16:31N 47°42' W 122°26'611.4
2017-Nov-04 16:00N 47°37' W 122°27'611.9
2017-Nov-04 15:31N 47°31' W 122°25'611.7
2017-Nov-04 15:01N 47°25' W 122°22'5 9.8
2017-Nov-04 14:31N 47°20' W 122°25'3 6.6
2017-Nov-04 14:01N 47°17' W 122°25'3 5.2
2017-Nov-04 13:31N 47°16' W 122°22'0 0.0
2017-Nov-04 13:01N 47°16' W 122°22'0 0.0
2017-Nov-04 12:31N 47°16' W 122°22'0 0.0
2017-Nov-04 12:01N 47°16' W 122°22'0 0.0
2017-Nov-04 11:31N 47°16' W 122°22'0 0.0
2017-Nov-04 11:01N 47°16' W 122°22'0 0.0
2017-Nov-04 10:31N 47°16' W 122°22'0 0.0
2017-Nov-04 10:00N 47°16' W 122°22'0 0.0
2017-Nov-04 09:31N 47°16' W 122°22'0 0.0
2017-Nov-04 09:00N 47°16' W 122°22'0 0.0
2017-Nov-04 08:30N 47°16' W 122°22'0 0.0
2017-Nov-04 08:00N 47°16' W 122°22'0 0.0
2017-Nov-04 07:30N 47°16' W 122°22'0 0.0
2017-Nov-04 07:00N 47°16' W 122°22'0 0.0
2017-Nov-04 06:30N 47°16' W 122°22'0 0.0
2017-Nov-04 06:00N 47°16' W 122°22'0 0.0
2017-Nov-04 05:30N 47°16' W 122°22'0 0.0
2017-Nov-04 05:00N 47°16' W 122°22'0 0.0
2017-Nov-04 04:30N 47°16' W 122°22'0 0.0
2017-Nov-04 04:00N 47°16' W 122°22'0 0.0
2017-Nov-04 03:30N 47°16' W 122°22'0 0.0
2017-Nov-04 03:00N 47°16' W 122°22'0 0.0
2017-Nov-04 02:30N 47°16' W 122°22'0 0.0
2017-Nov-04 02:00N 47°16' W 122°22'0 0.0
2017-Nov-04 01:30N 47°16' W 122°22'0 0.0
2017-Nov-04 01:00N 47°16' W 122°22'0 0.0
2017-Nov-04 00:30N 47°16' W 122°22'0 0.0
2017-Nov-04 00:00N 47°16' W 122°22'0 0.0
2017-Nov-03 23:30N 47°16' W 122°22'0 0.0
2017-Nov-03 23:00N 47°16' W 122°22'0 0.0
2017-Nov-03 22:30N 47°16' W 122°22'0 0.0
2017-Nov-03 22:00N 47°16' W 122°22'0 0.0
2017-Nov-03 21:30N 47°16' W 122°22'0 0.0
2017-Nov-03 21:00N 47°16' W 122°22'0 0.0
2017-Nov-03 20:30N 47°16' W 122°22'0 0.0
2017-Nov-03 20:00N 47°16' W 122°22'0 0.0
2017-Nov-03 19:30N 47°16' W 122°22'0 0.0
2017-Nov-03 19:00N 47°16' W 122°22'0 0.0
2017-Nov-03 18:30N 47°16' W 122°22'0 0.0
2017-Nov-03 18:00N 47°16' W 122°22'0 0.0
2017-Nov-03 17:30N 47°16' W 122°22'0 0.0
2017-Nov-03 17:00N 47°16' W 122°22'0 0.0
2017-Nov-03 16:30N 47°16' W 122°22'0 0.0
2017-Nov-03 16:00N 47°16' W 122°22'0 0.0
2017-Nov-03 15:30N 47°16' W 122°22'0 0.0
2017-Nov-03 15:00N 47°16' W 122°22'0 0.0
2017-Nov-03 14:30N 47°16' W 122°22'0 0.0
2017-Nov-03 14:00N 47°16' W 122°22'0 0.0
2017-Nov-03 13:30N 47°16' W 122°22'0 0.0
2017-Nov-03 13:00N 47°16' W 122°22'0 0.0
2017-Nov-03 12:30N 47°16' W 122°22'0 0.0
2017-Nov-03 12:00N 47°16' W 122°22'0 0.0
2017-Nov-03 11:30N 47°16' W 122°22'0 0.0
2017-Nov-03 11:00N 47°16' W 122°22'0 0.0
2017-Nov-03 10:30N 47°16' W 122°22'0 0.0
2017-Nov-03 10:00N 47°16' W 122°22'0 0.0
2017-Nov-03 09:31N 47°16' W 122°22'0 0.0
2017-Nov-03 09:00N 47°16' W 122°22'0 0.0
2017-Nov-03 08:30N 47°16' W 122°22'0 0.0
2017-Nov-03 08:00N 47°16' W 122°22'0 0.0
2017-Nov-03 07:30N 47°16' W 122°22'0 0.0
2017-Nov-03 07:00N 47°16' W 122°22'0 0.0
2017-Nov-03 06:31N 47°16' W 122°22'0 0.0
2017-Nov-03 06:00N 47°16' W 122°22'0 0.0
2017-Nov-03 05:30N 47°16' W 122°22'0 0.0
2017-Nov-03 05:00N 47°16' W 122°22'0 0.0
2017-Nov-03 04:30N 47°16' W 122°22'0 0.0
2017-Nov-03 04:00N 47°16' W 122°22'0 0.0
2017-Nov-03 03:30N 47°16' W 122°22'0 0.0
2017-Nov-03 03:00N 47°16' W 122°22'0 0.0
2017-Nov-03 02:30N 47°16' W 122°22'0 0.0
2017-Nov-03 02:00N 47°16' W 122°22'0 0.0
2017-Nov-03 01:30N 47°16' W 122°22'0 0.0
2017-Nov-03 01:00N 47°16' W 122°22'0 0.0
2017-Nov-03 00:30N 47°16' W 122°22'0 0.0
2017-Nov-03 00:00N 47°16' W 122°22'0 0.0
2017-Nov-02 23:30N 47°16' W 122°22'0 0.0
2017-Nov-02 23:00N 47°16' W 122°22'0 0.0
2017-Nov-02 22:30N 47°16' W 122°22'0 0.0
2017-Nov-02 22:00N 47°16' W 122°22'0 0.0
2017-Nov-02 21:30N 47°16' W 122°22'0 0.0
2017-Nov-02 21:00N 47°16' W 122°22'0 0.0
2017-Nov-02 20:30N 47°16' W 122°22'0 0.0
2017-Nov-02 20:00N 47°16' W 122°22'0 0.0
2017-Nov-02 19:30N 47°16' W 122°22'0 0.0
2017-Nov-02 19:00N 47°16' W 122°22'  

Dump ship's entire track history